Time;durP1;ratioP1;P1;durP2;ratioP2;P2;SDS_P1;SDS_P2;PMS_P1;PMS_P2;Temp;Humidity;BMP_temperature;BMP_pressure;BME280_temperature;BME280_humidity;BME280_pressure;Samples;Min_cycle;Max_cycle;Signal;HPM_P1;HPM_P2
2022/07/09 00:00:26;;;;;;;11.88;6.40;;;16.70;99.90;;;;;;5071113;28;20049;-41
2022/07/09 00:02:52;;;;;;;17.92;6.57;;;16.70;99.90;;;;;;5071169;28;20072;-41
2022/07/09 00:05:18;;;;;;;10.82;6.05;;;16.70;99.90;;;;;;5070565;28;20052;-40
2022/07/09 00:07:44;;;;;;;14.07;6.18;;;16.70;99.90;;;;;;5064666;28;20036;-41
2022/07/09 00:10:10;;;;;;;11.27;6.65;;;16.70;99.90;;;;;;5089553;28;20051;-41
2022/07/09 00:12:36;;;;;;;12.07;6.20;;;16.70;99.90;;;;;;5070806;28;20048;-41
2022/07/09 00:15:02;;;;;;;13.20;6.10;;;16.70;99.90;;;;;;5080510;28;20064;-41
2022/07/09 00:17:29;;;;;;;12.15;6.38;;;16.70;99.90;;;;;;5055108;28;20491;-41
2022/07/09 00:19:56;;;;;;;14.40;5.68;;;16.70;99.90;;;;;;5071601;28;20080;-41
2022/07/09 00:22:22;;;;;;;12.23;5.70;;;16.70;99.90;;;;;;5071029;28;20408;-41
2022/07/09 00:24:48;;;;;;;9.23;5.35;;;16.70;99.90;;;;;;5059678;28;20040;-41
2022/07/09 00:27:13;;;;;;;13.90;6.05;;;16.70;99.90;;;;;;5055267;28;20037;-41
2022/07/09 00:29:39;;;;;;;15.35;6.05;;;16.70;99.90;;;;;;5070812;28;20051;-41
2022/07/09 00:32:05;;;;;;;11.10;5.75;;;16.70;99.90;;;;;;5071046;28;20048;-42
2022/07/09 00:34:31;;;;;;;13.68;6.10;;;16.70;99.90;;;;;;5071336;28;20062;-41
2022/07/09 00:36:57;;;;;;;12.10;6.22;;;16.80;99.90;;;;;;5055940;28;20085;-41
2022/07/09 00:39:22;;;;;;;14.30;5.88;;;16.70;99.90;;;;;;5070804;28;20040;-41
2022/07/09 00:41:48;;;;;;;15.85;5.95;;;16.70;99.90;;;;;;5069864;28;20070;-41
2022/07/09 00:44:14;;;;;;;15.40;6.03;;;16.80;99.90;;;;;;5085683;28;20040;-40
2022/07/09 00:46:39;;;;;;;10.20;5.82;;;16.70;99.90;;;;;;5057163;28;20411;-40
2022/07/09 00:49:06;;;;;;;13.73;5.70;;;16.70;99.90;;;;;;5069237;28;20401;-41
2022/07/09 00:51:32;;;;;;;13.70;5.70;;;16.80;99.90;;;;;;5090892;28;20491;-41
2022/07/09 00:53:59;;;;;;;15.50;6.40;;;16.80;99.90;;;;;;5071046;28;20055;-42
2022/07/09 00:56:27;;;;;;;11.80;5.65;;;16.70;99.90;;;;;;5057357;28;20600;-41
2022/07/09 00:58:53;;;;;;;10.27;5.93;;;16.70;99.90;;;;;;5065880;28;20514;-41
2022/07/09 01:01:19;;;;;;;13.45;5.68;;;16.70;99.90;;;;;;5070885;28;20095;-40
2022/07/09 01:03:44;;;;;;;13.00;5.97;;;16.70;99.90;;;;;;5069816;28;20464;-41
2022/07/09 01:06:10;;;;;;;12.18;5.82;;;16.70;99.90;;;;;;5063121;28;20060;-41
2022/07/09 01:08:36;;;;;;;11.88;5.53;;;16.70;99.90;;;;;;5062062;28;20063;-41
2022/07/09 01:11:02;;;;;;;11.88;5.55;;;16.70;99.90;;;;;;5069136;28;20125;-41
2022/07/09 01:13:28;;;;;;;14.57;5.60;;;16.70;99.90;;;;;;5087048;28;20048;-40
2022/07/09 01:15:53;;;;;;;12.35;5.30;;;16.70;99.90;;;;;;5074925;28;20094;-40
2022/07/09 01:18:19;;;;;;;11.45;5.30;;;16.70;99.90;;;;;;5071452;28;20053;-41
2022/07/09 01:20:45;;;;;;;12.07;5.93;;;16.70;99.90;;;;;;5091001;28;20044;-41
2022/07/09 01:23:11;;;;;;;10.43;5.95;;;16.70;99.90;;;;;;5088496;28;20044;-41
2022/07/09 01:25:39;;;;;;;11.05;5.65;;;16.70;99.90;;;;;;5061065;28;20119;-40
2022/07/09 01:28:06;;;;;;;10.23;5.88;;;16.70;99.90;;;;;;5058618;28;20169;-41
2022/07/09 01:30:34;;;;;;;14.38;5.85;;;16.70;99.90;;;;;;5078618;28;20521;-41
2022/07/09 01:33:00;;;;;;;14.40;5.75;;;16.70;99.90;;;;;;5069493;28;20040;-41
2022/07/09 01:35:26;;;;;;;13.45;6.47;;;16.70;99.90;;;;;;5069973;28;20052;-41
2022/07/09 01:37:53;;;;;;;14.00;5.40;;;16.70;99.90;;;;;;5052855;28;20054;-42
2022/07/09 01:40:20;;;;;;;11.48;6.03;;;16.70;99.90;;;;;;5070134;28;20399;-41
2022/07/09 01:42:46;;;;;;;15.93;6.03;;;16.70;99.90;;;;;;5074965;28;20771;-41
2022/07/09 01:45:11;;;;;;;15.57;6.20;;;16.70;99.90;;;;;;5079937;28;20554;-41
2022/07/09 01:47:37;;;;;;;13.35;6.13;;;16.70;99.90;;;;;;5056651;28;20134;-41
2022/07/09 01:50:04;;;;;;;13.48;6.30;;;16.70;99.90;;;;;;5090467;28;20040;-41
2022/07/09 01:52:30;;;;;;;18.02;7.05;;;16.70;99.90;;;;;;5089444;28;20051;-41
2022/07/09 01:54:55;;;;;;;13.18;5.85;;;16.70;99.90;;;;;;5090305;28;20048;-41
2022/07/09 01:57:21;;;;;;;15.20;5.80;;;16.70;99.90;;;;;;5073484;28;20044;-41
2022/07/09 01:59:47;;;;;;;11.98;5.72;;;16.70;99.90;;;;;;5089460;28;20430;-41
2022/07/09 02:02:12;;;;;;;14.90;5.18;;;16.80;99.90;;;;;;5089101;28;20040;-41
2022/07/09 02:04:38;;;;;;;11.55;5.63;;;16.70;99.90;;;;;;5090152;28;20031;-41
2022/07/09 02:07:04;;;;;;;10.95;5.80;;;16.80;99.90;;;;;;5056291;28;20044;-42
2022/07/09 02:09:30;;;;;;;13.38;5.35;;;16.80;99.90;;;;;;5069695;28;20048;-41
2022/07/09 02:11:56;;;;;;;11.50;4.95;;;16.80;99.90;;;;;;5069646;28;20395;-41
2022/07/09 02:14:22;;;;;;;9.10;4.95;;;16.70;99.90;;;;;;5068574;28;20041;-41
2022/07/09 02:16:48;;;;;;;11.27;5.03;;;16.80;99.90;;;;;;5067531;28;20033;-41
2022/07/09 02:19:14;;;;;;;13.35;4.85;;;16.70;99.90;;;;;;5068412;28;20042;-41
2022/07/09 02:21:40;;;;;;;12.32;4.68;;;16.70;99.90;;;;;;5069410;28;20483;-40
2022/07/09 02:24:06;;;;;;;12.40;5.25;;;16.70;99.90;;;;;;5058542;28;20044;-41
2022/07/09 02:26:32;;;;;;;10.40;4.28;;;16.70;99.90;;;;;;5053067;28;20036;-41
2022/07/09 02:28:59;;;;;;;8.60;3.92;;;16.70;99.90;;;;;;5078600;28;20123;-41
2022/07/09 02:31:26;;;;;;;13.05;4.43;;;16.70;99.90;;;;;;5076160;28;20063;-41
2022/07/09 02:33:52;;;;;;;12.18;4.28;;;16.70;99.90;;;;;;5068680;28;20084;-41
2022/07/09 02:36:18;;;;;;;13.73;5.00;;;16.70;99.90;;;;;;5058508;28;20036;-41
2022/07/09 02:38:43;;;;;;;10.07;4.45;;;16.70;99.90;;;;;;5064840;28;20079;-41
2022/07/09 02:41:09;;;;;;;12.25;4.68;;;16.70;99.90;;;;;;5071645;28;20051;-41
2022/07/09 02:43:35;;;;;;;13.65;4.72;;;16.70;99.90;;;;;;5079579;28;20047;-40
2022/07/09 02:46:01;;;;;;;11.45;4.57;;;16.70;99.90;;;;;;5069886;28;20135;-41
2022/07/09 02:48:27;;;;;;;12.95;4.57;;;16.70;99.90;;;;;;5052762;28;20569;-41
2022/07/09 02:50:53;;;;;;;11.63;5.10;;;16.70;99.90;;;;;;5068833;28;20154;-41
2022/07/09 02:53:19;;;;;;;10.68;3.92;;;16.70;99.90;;;;;;5068108;28;20131;-41
2022/07/09 02:55:45;;;;;;;11.95;4.93;;;16.60;99.90;;;;;;5068713;28;20040;-41
2022/07/09 02:58:11;;;;;;;9.27;4.43;;;16.60;99.90;;;;;;5052793;28;20520;-41
2022/07/09 03:00:41;;;;;;;10.65;4.45;;;16.70;99.90;;;;;;5068643;28;20515;-41
2022/07/09 03:03:07;;;;;;;11.18;4.53;;;16.60;99.90;;;;;;5068528;28;20171;-41
2022/07/09 03:05:33;;;;;;;9.30;4.38;;;16.60;99.90;;;;;;5069492;28;20124;-41
2022/07/09 03:07:59;;;;;;;9.43;4.82;;;16.60;99.90;;;;;;5051250;28;20044;-41
2022/07/09 03:10:25;;;;;;;10.82;4.90;;;16.60;99.90;;;;;;5068886;28;20052;-40
2022/07/09 03:12:51;;;;;;;8.27;4.60;;;16.60;99.90;;;;;;5068335;28;20185;-41
2022/07/09 03:15:17;;;;;;;11.65;4.57;;;16.60;99.90;;;;;;5073980;28;20036;-41
2022/07/09 03:17:47;;;;;;;9.55;3.85;;;16.60;99.90;;;;;;5072840;28;20044;-41
2022/07/09 03:20:13;;;;;;;9.27;4.10;;;16.60;99.90;;;;;;5087377;28;20482;-41
2022/07/09 03:22:40;;;;;;;8.95;4.18;;;16.60;99.90;;;;;;5075978;28;20044;-41
2022/07/09 03:25:06;;;;;;;9.95;4.18;;;16.50;99.90;;;;;;5058484;28;20105;-41
2022/07/09 03:27:32;;;;;;;10.60;4.63;;;16.50;99.90;;;;;;5052362;28;20374;-41
2022/07/09 03:29:59;;;;;;;12.77;4.82;;;16.60;99.90;;;;;;5082534;28;20083;-41
2022/07/09 03:32:25;;;;;;;12.73;4.72;;;16.50;99.90;;;;;;5081608;28;20147;-41
2022/07/09 03:34:52;;;;;;;12.55;4.75;;;16.50;99.90;;;;;;5090727;28;20052;-41
2022/07/09 03:37:18;;;;;;;10.15;4.13;;;16.50;99.90;;;;;;5075378;28;20050;-41
2022/07/09 03:39:44;;;;;;;7.45;4.13;;;16.50;99.90;;;;;;5092625;28;20055;-41
2022/07/09 03:42:11;;;;;;;10.75;4.50;;;16.50;99.90;;;;;;5079368;28;20404;-40
2022/07/09 03:44:37;;;;;;;12.25;4.93;;;16.40;99.90;;;;;;5086894;28;20102;-40
2022/07/09 03:47:03;;;;;;;11.27;4.03;;;16.40;99.90;;;;;;5056111;28;20040;-43
2022/07/09 03:49:29;;;;;;;9.50;4.72;;;16.40;99.90;;;;;;5090776;28;20414;-41
2022/07/09 03:51:55;;;;;;;8.15;4.28;;;16.40;99.90;;;;;;5092470;28;20048;-40
2022/07/09 03:54:20;;;;;;;12.30;5.10;;;16.40;99.90;;;;;;5091649;28;20048;-42
2022/07/09 03:56:46;;;;;;;8.25;4.25;;;16.40;99.90;;;;;;5076663;28;20048;-41
2022/07/09 03:59:12;;;;;;;11.32;4.53;;;16.40;99.90;;;;;;5090953;28;20052;-40
2022/07/09 04:01:37;;;;;;;10.25;4.63;;;16.40;99.90;;;;;;5079568;28;20045;-41
2022/07/09 04:04:04;;;;;;;9.38;4.72;;;16.40;99.90;;;;;;5071218;28;20055;-41
2022/07/09 04:06:30;;;;;;;10.38;4.40;;;16.30;99.90;;;;;;5057975;28;20056;-41
2022/07/09 04:08:56;;;;;;;8.38;4.60;;;16.30;99.90;;;;;;5089090;28;20064;-41
2022/07/09 04:11:21;;;;;;;10.55;4.30;;;16.30;99.90;;;;;;5092037;28;20040;-41
2022/07/09 04:13:47;;;;;;;9.13;4.20;;;16.40;99.90;;;;;;5091109;28;20075;-41
2022/07/09 04:16:13;;;;;;;10.10;4.93;;;16.30;99.90;;;;;;5060401;28;20393;-41
2022/07/09 04:18:43;;;;;;;11.07;4.20;;;16.40;99.90;;;;;;5064237;28;20082;-40
2022/07/09 04:21:09;;;;;;;8.25;4.05;;;16.40;99.90;;;;;;5071704;28;20049;-41
2022/07/09 04:23:35;;;;;;;11.63;4.68;;;16.40;99.90;;;;;;5066902;28;20080;-41
2022/07/09 04:26:00;;;;;;;14.10;4.82;;;16.40;99.90;;;;;;5065774;28;20087;-41
2022/07/09 04:28:26;;;;;;;10.05;4.70;;;16.40;99.90;;;;;;5062391;28;20120;-41
2022/07/09 04:30:52;;;;;;;9.80;4.30;;;16.40;99.90;;;;;;5090583;28;20112;-41
2022/07/09 04:33:18;;;;;;;7.68;4.35;;;16.40;99.90;;;;;;5090447;28;20044;-41
2022/07/09 04:35:44;;;;;;;10.38;4.40;;;16.40;99.90;;;;;;5090326;28;20093;-41
2022/07/09 04:38:12;;;;;;;8.10;4.13;;;16.40;99.90;;;;;;5075863;28;20140;-41
2022/07/09 04:40:38;;;;;;;9.65;4.38;;;16.40;99.90;;;;;;5091602;28;20048;-40
2022/07/09 04:43:05;;;;;;;8.32;4.45;;;16.50;99.90;;;;;;5063515;28;20381;-40
2022/07/09 04:45:31;;;;;;;11.95;4.72;;;16.50;99.90;;;;;;5065304;28;20072;-41
2022/07/09 04:47:58;;;;;;;6.70;4.00;;;16.50;99.90;;;;;;5054093;28;20055;-41
2022/07/09 04:50:24;;;;;;;10.27;4.85;;;16.40;99.90;;;;;;5084014;28;20491;-41
2022/07/09 04:52:50;;;;;;;8.35;4.45;;;16.50;99.90;;;;;;5088640;28;20043;-41
2022/07/09 04:55:16;;;;;;;7.97;4.57;;;16.50;99.90;;;;;;5091202;28;20052;-41
2022/07/09 04:57:42;;;;;;;9.02;4.35;;;16.50;99.90;;;;;;5072811;28;20484;-42
2022/07/09 05:00:10;;;;;;;7.78;4.07;;;16.60;99.90;;;;;;5091204;28;20052;-40
2022/07/09 05:02:36;;;;;;;10.90;4.55;;;16.50;99.90;;;;;;5088890;28;20048;-41
2022/07/09 05:05:03;;;;;;;10.10;4.43;;;16.60;99.90;;;;;;5091059;28;20048;-41
2022/07/09 05:07:30;;;;;;;9.68;4.50;;;16.60;99.90;;;;;;5074737;28;20040;-41
2022/07/09 05:09:56;;;;;;;7.25;4.25;;;16.60;99.90;;;;;;5090744;28;20052;-41
2022/07/09 05:12:21;;;;;;;8.55;4.18;;;16.60;99.90;;;;;;5090119;28;20036;-41
2022/07/09 05:14:47;;;;;;;11.88;4.40;;;16.60;99.90;;;;;;5085895;28;20047;-40
2022/07/09 05:17:13;;;;;;;9.48;4.68;;;16.60;99.90;;;;;;5054237;28;20048;-41
2022/07/09 05:19:38;;;;;;;10.00;4.18;;;16.70;99.90;;;;;;5070311;28;20058;-41
2022/07/09 05:22:04;;;;;;;13.48;4.55;;;16.70;99.90;;;;;;5078112;28;20414;-42
2022/07/09 05:24:30;;;;;;;8.82;4.32;;;16.70;99.90;;;;;;5068869;28;20102;-41
2022/07/09 05:26:55;;;;;;;11.43;4.68;;;16.70;99.90;;;;;;5054620;28;20049;-41
2022/07/09 05:29:22;;;;;;;9.65;4.40;;;16.80;99.90;;;;;;5084026;28;20055;-41
2022/07/09 05:31:49;;;;;;;12.07;4.88;;;16.80;99.90;;;;;;5089227;28;20087;-41
2022/07/09 05:34:15;;;;;;;10.32;4.45;;;16.80;99.90;;;;;;5089493;28;20059;-41
2022/07/09 05:36:40;;;;;;;9.60;4.93;;;16.80;99.90;;;;;;5076539;28;20620;-41
2022/07/09 05:39:07;;;;;;;9.85;4.20;;;16.80;99.90;;;;;;5088506;28;20076;-40
2022/07/09 05:41:33;;;;;;;10.68;4.30;;;16.90;99.90;;;;;;5081016;28;20067;-41
2022/07/09 05:43:59;;;;;;;6.95;3.90;;;16.90;99.90;;;;;;5069132;28;20053;-41
2022/07/09 05:46:25;;;;;;;10.57;4.05;;;16.90;99.90;;;;;;5062791;28;20052;-41
2022/07/09 05:48:50;;;;;;;10.65;4.55;;;17.00;99.90;;;;;;5058984;28;20052;-41
2022/07/09 05:51:16;;;;;;;11.40;3.75;;;17.00;99.90;;;;;;5059846;28;20087;-41
2022/07/09 05:53:42;;;;;;;10.73;4.25;;;17.00;99.90;;;;;;5058896;28;20083;-41
2022/07/09 05:56:08;;;;;;;7.25;3.75;;;17.00;99.90;;;;;;5063507;28;20037;-41
2022/07/09 05:58:34;;;;;;;6.82;3.53;;;17.10;99.90;;;;;;5052471;28;20053;-41
2022/07/09 06:01:00;;;;;;;9.32;3.42;;;17.10;99.90;;;;;;5069788;28;20083;-41
2022/07/09 06:03:26;;;;;;;8.20;3.78;;;17.10;99.90;;;;;;5068918;28;20044;-40
2022/07/09 06:05:52;;;;;;;7.65;3.25;;;17.10;99.90;;;;;;5069761;28;20055;-41
2022/07/09 06:08:18;;;;;;;6.35;3.15;;;17.20;99.90;;;;;;5067974;28;20072;-41
2022/07/09 06:10:43;;;;;;;8.68;3.17;;;17.20;99.90;;;;;;5090218;28;20068;-41
2022/07/09 06:13:09;;;;;;;10.43;3.83;;;17.30;99.90;;;;;;5073786;28;20186;-41
2022/07/09 06:15:35;;;;;;;9.77;3.42;;;17.30;99.90;;;;;;5078163;28;20102;-40
2022/07/09 06:18:01;;;;;;;11.05;3.50;;;17.30;99.90;;;;;;5073277;28;20043;-41
2022/07/09 06:20:27;;;;;;;9.70;3.50;;;17.30;99.90;;;;;;5089766;28;20515;-41
2022/07/09 06:22:53;;;;;;;9.25;3.17;;;17.30;99.90;;;;;;5083631;28;20055;-41
2022/07/09 06:25:18;;;;;;;6.57;3.33;;;17.40;99.90;;;;;;5059627;28;20106;-41
2022/07/09 06:27:44;;;;;;;7.45;2.97;;;17.40;99.90;;;;;;5054678;28;20048;-40
2022/07/09 06:30:10;;;;;;;10.27;3.22;;;17.40;99.90;;;;;;5088130;28;20092;-41
2022/07/09 06:32:35;;;;;;;5.47;2.50;;;17.40;99.90;;;;;;5088429;28;20044;-41
2022/07/09 06:35:02;;;;;;;6.72;2.42;;;17.50;99.90;;;;;;5089610;28;20048;-41
2022/07/09 06:37:28;;;;;;;6.43;2.80;;;17.50;99.90;;;;;;5057826;28;20110;-41
2022/07/09 06:39:56;;;;;;;9.32;2.50;;;17.50;99.90;;;;;;5069678;28;20515;-41
2022/07/09 06:42:22;;;;;;;4.45;2.10;;;17.50;99.90;;;;;;5070571;28;20546;-41
2022/07/09 06:44:48;;;;;;;7.65;2.15;;;17.60;99.90;;;;;;5078963;28;20165;-41
2022/07/09 06:47:14;;;;;;;10.75;2.40;;;17.60;99.90;;;;;;5069763;28;20047;-41
2022/07/09 06:49:40;;;;;;;5.85;2.13;;;17.60;99.90;;;;;;5067777;28;20141;-41
2022/07/09 06:52:06;;;;;;;5.40;1.90;;;17.60;99.90;;;;;;5069742;28;20102;-41
2022/07/09 06:54:31;;;;;;;6.63;2.33;;;17.70;99.90;;;;;;5077315;28;20523;-41
2022/07/09 06:56:57;;;;;;;6.85;1.83;;;17.60;99.90;;;;;;5064366;28;20078;-41
2022/07/09 06:59:26;;;;;;;7.82;2.00;;;17.70;99.90;;;;;;5075209;28;20048;-41
2022/07/09 07:01:51;;;;;;;8.23;1.95;;;17.80;99.90;;;;;;5075687;28;20048;-41
2022/07/09 07:04:17;;;;;;;7.53;1.70;;;17.80;99.90;;;;;;5077930;28;20872;-41
2022/07/09 07:06:46;;;;;;;7.22;1.90;;;17.80;99.90;;;;;;5057303;28;20086;-41
2022/07/09 07:09:12;;;;;;;10.60;1.90;;;17.80;99.90;;;;;;5067502;28;20399;-41
2022/07/09 07:11:38;;;;;;;6.40;1.50;;;17.90;99.90;;;;;;5079873;28;20380;-41
2022/07/09 07:14:04;;;;;;;8.73;1.70;;;17.90;99.90;;;;;;5080416;28;20062;-41
2022/07/09 07:16:30;;;;;;;4.88;1.60;;;17.90;99.90;;;;;;5068160;28;20628;-41
2022/07/09 07:18:55;;;;;;;9.02;2.00;;;18.00;99.90;;;;;;5077420;28;20052;-41
2022/07/09 07:21:21;;;;;;;7.85;1.50;;;18.00;99.90;;;;;;5082945;28;20036;-40
2022/07/09 07:23:47;;;;;;;5.50;1.40;;;18.00;99.90;;;;;;5083216;28;20036;-41
2022/07/09 07:26:12;;;;;;;7.30;1.50;;;18.10;99.90;;;;;;5074554;28;20039;-41
2022/07/09 07:28:38;;;;;;;8.77;1.67;;;18.10;99.90;;;;;;5068063;28;20673;-41
2022/07/09 07:31:04;;;;;;;8.65;1.63;;;18.20;99.90;;;;;;5078973;28;20114;-41
2022/07/09 07:33:29;;;;;;;5.25;1.23;;;18.20;99.90;;;;;;5079469;28;20056;-41
2022/07/09 07:35:55;;;;;;;4.97;1.50;;;18.20;99.90;;;;;;5078751;28;20044;-41
2022/07/09 07:38:22;;;;;;;6.57;1.40;;;18.30;99.90;;;;;;5064415;28;20043;-41
2022/07/09 07:40:48;;;;;;;6.35;1.40;;;18.30;99.90;;;;;;5082772;28;20055;-40
2022/07/09 07:43:13;;;;;;;4.35;1.30;;;18.30;99.90;;;;;;5082184;28;20407;-41
2022/07/09 07:45:39;;;;;;;5.45;1.20;;;18.40;99.90;;;;;;5079958;28;20113;-40
2022/07/09 07:48:05;;;;;;;4.88;1.17;;;18.30;99.90;;;;;;5059405;28;20470;-41
2022/07/09 07:50:32;;;;;;;5.28;1.63;;;18.30;99.90;;;;;;5072410;28;20041;-41
2022/07/09 07:52:58;;;;;;;5.30;1.35;;;18.30;99.90;;;;;;5079128;28;20044;-41
2022/07/09 07:55:24;;;;;;;6.80;1.48;;;18.40;99.90;;;;;;5076597;28;20407;-40
2022/07/09 07:57:49;;;;;;;4.90;1.35;;;18.50;99.90;;;;;;5054615;28;20055;-41
2022/07/09 08:00:15;;;;;;;6.55;1.55;;;18.50;99.90;;;;;;5070993;28;20068;-41
2022/07/09 08:02:41;;;;;;;6.90;1.50;;;18.50;99.90;;;;;;5069533;28;20545;-40
2022/07/09 08:05:07;;;;;;;8.13;1.25;;;18.50;99.90;;;;;;5071701;28;20049;-41
2022/07/09 08:07:33;;;;;;;6.03;1.25;;;18.60;99.90;;;;;;5055952;28;20503;-40
2022/07/09 08:09:59;;;;;;;7.05;1.30;;;18.60;99.90;;;;;;5071994;28;20082;-41
2022/07/09 08:12:24;;;;;;;8.68;1.65;;;18.70;99.90;;;;;;5071225;28;20108;-41
2022/07/09 08:14:50;;;;;;;6.88;1.60;;;18.70;99.90;;;;;;5072819;28;20049;-41
2022/07/09 08:17:16;;;;;;;7.78;1.55;;;18.80;99.90;;;;;;5075575;28;20056;-41
2022/07/09 08:19:42;;;;;;;5.35;1.50;;;18.80;99.90;;;;;;5091451;28;20051;-40
2022/07/09 08:22:07;;;;;;;7.40;1.30;;;18.90;99.90;;;;;;5091124;28;20044;-41
2022/07/09 08:24:33;;;;;;;6.97;1.52;;;18.90;99.90;;;;;;5069237;28;20125;-41
2022/07/09 08:26:59;;;;;;;5.88;1.73;;;18.80;99.90;;;;;;5056168;28;20033;-41
2022/07/09 08:29:25;;;;;;;5.05;1.40;;;18.80;99.90;;;;;;5073045;28;20558;-41
2022/07/09 08:31:51;;;;;;;4.28;1.10;;;18.90;99.90;;;;;;5071883;28;20048;-41
2022/07/09 08:34:17;;;;;;;3.92;1.48;;;18.90;99.90;;;;;;5070190;28;20056;-41
2022/07/09 08:36:44;;;;;;;5.22;1.48;;;18.90;99.90;;;;;;5057499;28;20044;-41
2022/07/09 08:39:10;;;;;;;8.88;1.25;;;19.00;99.90;;;;;;5072117;28;20091;-40
2022/07/09 08:41:36;;;;;;;5.47;1.50;;;19.00;99.90;;;;;;5082049;28;20052;-40
2022/07/09 08:44:05;;;;;;;3.72;1.60;;;19.10;99.90;;;;;;5072135;28;20771;-41
2022/07/09 08:46:34;;;;;;;9.52;1.83;;;19.20;99.90;;;;;;5056644;28;20532;-41
2022/07/09 08:49:01;;;;;;;5.70;1.15;;;19.10;99.90;;;;;;5070064;28;20045;-41
2022/07/09 08:51:26;;;;;;;7.68;1.20;;;19.20;99.90;;;;;;5091320;28;20063;-41
2022/07/09 08:53:54;;;;;;;4.50;0.70;;;19.20;99.90;;;;;;5090598;28;20043;-41
2022/07/09 08:56:20;;;;;;;3.67;1.17;;;19.20;99.90;;;;;;5063315;28;20119;-41
2022/07/09 08:58:46;;;;;;;5.22;1.20;;;19.20;99.90;;;;;;5073071;28;20123;-41
2022/07/09 09:01:19;;;;;;;8.48;1.48;;;19.30;99.90;;;;;;5069698;28;20056;-41
2022/07/09 09:03:45;;;;;;;8.90;1.65;;;19.40;99.90;;;;;;5069638;28;20545;-40
2022/07/09 09:06:13;;;;;;;7.03;1.52;;;19.50;99.90;;;;;;5062869;28;20045;-41
2022/07/09 09:08:43;;;;;;;6.03;1.50;;;19.60;99.90;;;;;;5063798;28;20079;-41
2022/07/09 09:11:28;;;;;;;8.45;1.15;;;19.60;99.90;;;;;;5070998;28;20051;-41
2022/07/09 09:13:54;;;;;;;6.30;1.60;;;19.60;99.90;;;;;;5057261;28;20513;-41
2022/07/09 09:16:22;;;;;;;6.45;1.20;;;19.60;99.90;;;;;;5072983;28;20052;-41
2022/07/09 09:18:50;;;;;;;7.35;1.73;;;19.70;99.90;;;;;;5066804;28;20045;-40
2022/07/09 09:21:19;;;;;;;5.70;1.00;;;19.60;99.90;;;;;;5070225;28;20056;-41
2022/07/09 09:23:48;;;;;;;7.82;1.38;;;19.60;99.90;;;;;;5064590;28;20142;-41
2022/07/09 09:26:20;;;;;;;7.88;1.60;;;19.60;99.90;;;;;;5055329;28;20068;-41
2022/07/09 09:28:57;;;;;;;5.82;1.40;;;19.60;99.90;;;;;;5064861;28;20066;-41
2022/07/09 09:31:36;;;;;;;7.45;1.33;;;19.60;99.90;;;;;;5070317;28;20053;-41
2022/07/09 09:34:11;;;;;;;5.05;1.35;;;19.70;99.90;;;;;;5069233;28;20037;-41
2022/07/09 09:36:38;;;;;;;6.65;1.23;;;19.70;99.90;;;;;;5056558;28;20198;-41
2022/07/09 09:39:14;;;;;;;7.70;1.40;;;19.70;99.90;;;;;;5068679;28;20041;-41
2022/07/09 09:41:42;;;;;;;6.25;1.13;;;19.70;99.90;;;;;;5069843;28;20052;-41
2022/07/09 09:44:20;;;;;;;5.78;1.00;;;19.80;99.90;;;;;;5069239;28;20051;-41
2022/07/09 09:46:46;;;;;;;6.03;1.55;;;19.80;99.90;;;;;;5054370;28;20069;-41
2022/07/09 09:49:15;;;;;;;6.07;1.35;;;19.70;99.90;;;;;;5071936;28;20048;-40
2022/07/09 09:52:04;;;;;;;5.47;1.35;;;19.80;99.90;;;;;;5090141;28;20490;-41
2022/07/09 09:54:32;;;;;;;6.65;1.40;;;19.90;99.90;;;;;;5089217;28;20151;-41
2022/07/09 09:56:59;;;;;;;3.78;1.23;;;20.00;99.90;;;;;;5074942;28;20392;-41
2022/07/09 09:59:25;;;;;;;9.70;1.75;;;20.00;99.90;;;;;;5089091;28;20052;-40
2022/07/09 10:01:52;;;;;;;7.72;1.23;;;20.00;99.90;;;;;;5088797;28;20086;-40
2022/07/09 10:04:18;;;;;;;4.38;1.25;;;20.00;99.90;;;;;;5068976;28;20048;-40
2022/07/09 10:06:45;;;;;;;5.18;1.30;;;20.10;99.90;;;;;;5055574;28;20044;-41
2022/07/09 10:09:15;;;;;;;5.40;1.50;;;20.00;99.90;;;;;;5089267;28;20048;-41
2022/07/09 10:11:46;;;;;;;6.70;1.80;;;19.90;99.90;;;;;;5074153;28;20102;-41
2022/07/09 10:14:25;;;;;;;11.65;1.73;;;19.70;99.90;;;;;;5069072;28;20048;-41
2022/07/09 10:16:53;;;;;;;9.13;1.60;;;19.70;99.90;;;;;;5052137;28;20264;-41
2022/07/09 10:19:30;;;;;;;7.20;1.60;;;19.60;99.90;;;;;;5067765;28;20060;-41
2022/07/09 10:21:57;;;;;;;5.85;1.70;;;19.50;99.90;;;;;;5069115;28;20178;-41
2022/07/09 10:24:31;;;;;;;10.38;2.00;;;19.40;99.90;;;;;;5058726;28;20064;-41
2022/07/09 10:27:05;;;;;;;10.15;1.83;;;19.30;99.90;;;;;;5062554;28;20071;-41
2022/07/09 10:29:30;;;;;;;8.93;1.70;;;19.20;99.90;;;;;;5088888;28;20075;-41
2022/07/09 10:31:57;;;;;;;8.00;1.60;;;19.10;99.90;;;;;;5088393;28;20499;-41
2022/07/09 10:34:34;;;;;;;9.45;1.80;;;19.10;99.90;;;;;;5088507;28;20181;-40
2022/07/09 10:37:01;;;;;;;8.70;1.80;;;19.10;99.90;;;;;;5074168;28;20153;-41
2022/07/09 10:39:27;;;;;;;9.68;1.70;;;19.10;99.90;;;;;;5081690;28;20052;-40
2022/07/09 10:42:06;;;;;;;4.97;1.40;;;19.10;99.90;;;;;;5069278;28;20131;-41
2022/07/09 10:44:40;;;;;;;8.52;1.23;;;19.10;99.90;;;;;;5058735;28;20401;-41
2022/07/09 10:47:06;;;;;;;4.90;1.17;;;19.10;99.90;;;;;;5067699;28;20056;-42
2022/07/09 10:49:36;;;;;;;5.13;1.38;;;19.20;99.90;;;;;;5093548;28;20040;-40
2022/07/09 10:52:04;;;;;;;5.90;1.05;;;19.20;99.90;;;;;;5093659;28;20040;-41
2022/07/09 10:54:30;;;;;;;5.22;1.10;;;19.20;99.90;;;;;;5085757;28;20044;-41
2022/07/09 10:56:56;;;;;;;4.05;0.73;;;19.20;99.90;;;;;;5057649;28;20045;-40
2022/07/09 10:59:23;;;;;;;3.88;0.98;;;19.20;99.90;;;;;;5072111;28;20529;-41
2022/07/09 11:01:55;;;;;;;7.10;1.10;;;19.20;99.90;;;;;;5072942;28;20063;-41
2022/07/09 11:04:31;;;;;;;6.95;0.95;;;19.20;99.90;;;;;;5072408;28;20045;-40
2022/07/09 11:06:58;;;;;;;6.60;0.98;;;19.30;99.90;;;;;;5060077;28;20051;-41
2022/07/09 11:09:28;;;;;;;5.03;0.80;;;19.30;99.90;;;;;;5092431;28;20044;-41
2022/07/09 11:11:53;;;;;;;8.25;1.20;;;19.20;99.90;;;;;;5093313;28;20036;-40
2022/07/09 11:14:19;;;;;;;4.20;0.80;;;19.30;99.90;;;;;;5091297;28;20600;-41
2022/07/09 11:16:58;;;;;;;5.28;0.93;;;19.30;99.90;;;;;;5056791;28;20040;-41
2022/07/09 11:19:24;;;;;;;3.58;0.80;;;19.40;99.90;;;;;;5071880;28;20123;-40
2022/07/09 11:21:59;;;;;;;6.65;0.80;;;19.40;99.90;;;;;;5072308;28;20127;-41
2022/07/09 11:24:26;;;;;;;9.60;0.77;;;19.40;99.90;;;;;;5061515;28;20515;-40
2022/07/09 11:26:51;;;;;;;5.50;0.85;;;19.50;99.90;;;;;;5077766;28;20048;-41
2022/07/09 11:29:17;;;;;;;7.32;0.95;;;19.50;99.90;;;;;;5090291;28;20052;-41
2022/07/09 11:31:51;;;;;;;5.75;0.93;;;19.50;99.90;;;;;;5093034;28;20036;-41
2022/07/09 11:34:19;;;;;;;5.15;0.75;;;19.60;99.90;;;;;;5091935;28;20090;-41
2022/07/09 11:36:47;;;;;;;5.82;1.02;;;19.60;99.90;;;;;;5077008;28;20052;-41
2022/07/09 11:39:50;;;;;;;5.28;0.73;;;19.70;99.90;;;;;;5092590;28;20063;-41
2022/07/09 11:42:17;;;;;;;3.47;0.60;;;19.70;99.90;;;;;;5058525;28;20057;-41
2022/07/09 11:44:58;;;;;;;5.05;0.90;;;19.70;99.90;;;;;;5086787;28;20024;-41
2022/07/09 11:47:45;;;;;;;6.82;1.00;;;19.70;99.90;;;;;;5052077;28;20064;-42
2022/07/09 11:50:15;;;;;;;3.53;0.80;;;19.70;99.90;;;;;;5092589;28;20052;-41
2022/07/09 11:52:50;;;;;;;4.35;0.90;;;19.80;99.90;;;;;;5091475;28;20036;-41
2022/07/09 11:55:27;;;;;;;3.47;0.60;;;19.90;99.90;;;;;;5091494;28;20048;-41
2022/07/09 11:57:58;;;;;;;3.45;0.57;;;19.90;99.90;;;;;;5075966;28;20038;-41
2022/07/09 12:00:27;;;;;;;4.85;0.80;;;20.00;99.90;;;;;;5092065;28;20055;-41
2022/07/09 12:02:53;;;;;;;3.70;0.70;;;20.00;99.90;;;;;;5091571;28;20072;-40
2022/07/09 12:05:37;;;;;;;6.28;0.82;;;20.00;99.90;;;;;;5091196;28;20040;-41
2022/07/09 12:08:05;;;;;;;4.00;0.80;;;20.10;99.90;;;;;;5055551;28;20037;-41
2022/07/09 12:10:33;;;;;;;7.45;0.65;;;20.20;99.90;;;;;;5070491;28;20423;-41
2022/07/09 12:13:00;;;;;;;3.63;0.77;;;20.30;99.90;;;;;;5070648;28;20048;-41
2022/07/09 12:15:27;;;;;;;4.70;1.05;;;20.30;99.90;;;;;;5071652;28;20057;-41
2022/07/09 12:17:54;;;;;;;4.28;0.80;;;20.30;99.90;;;;;;5069142;28;20449;-41
2022/07/09 12:20:22;;;;;;;4.85;0.55;;;20.40;99.90;;;;;;5090944;28;20047;-41
2022/07/09 12:22:47;;;;;;;6.82;0.95;;;20.40;99.90;;;;;;5075147;28;20126;-41
2022/07/09 12:25:13;;;;;;;4.22;0.80;;;20.40;99.90;;;;;;5061873;28;20526;-41
2022/07/09 12:27:39;;;;;;;4.70;0.93;;;20.40;99.90;;;;;;5055082;28;20041;-41
2022/07/09 12:30:05;;;;;;;4.00;0.98;;;20.50;99.90;;;;;;5078081;28;20110;-41
2022/07/09 12:32:31;;;;;;;6.28;0.90;;;20.60;99.90;;;;;;5090643;28;20043;-41
2022/07/09 12:34:57;;;;;;;4.15;0.80;;;20.70;99.90;;;;;;5091742;28;20043;-40
2022/07/09 12:37:22;;;;;;;4.22;0.80;;;20.70;99.90;;;;;;5073971;28;20040;-42
2022/07/09 12:39:49;;;;;;;5.15;0.85;;;20.70;99.90;;;;;;5091748;28;20066;-41
2022/07/09 12:42:15;;;;;;;6.38;0.80;;;20.60;99.90;;;;;;5079903;28;20122;-41